Time;durP1;ratioP1;P1;durP2;ratioP2;P2;SDS_P1;SDS_P2;PMS_P1;PMS_P2;Temp;Humidity;BMP_temperature;BMP_pressure;BME280_temperature;BME280_humidity;BME280_pressure;Samples;Min_cycle;Max_cycle;Signal;HPM_P1;HPM_P2
2022/08/03 00:01:50;;;;;;;3.47;1.50;;;15.00;99.90;;;;;;5098435;28;20309;-67
2022/08/03 00:04:17;;;;;;;2.83;1.30;;;15.30;99.90;;;;;;5112596;28;20178;-69
2022/08/03 00:06:45;;;;;;;2.37;1.00;;;15.50;99.90;;;;;;5107581;28;20721;-69
2022/08/03 00:09:13;;;;;;;2.13;1.40;;;15.50;99.90;;;;;;5104979;28;20179;-68
2022/08/03 00:11:41;;;;;;;1.87;1.23;;;15.60;99.90;;;;;;5103420;28;20198;-68
2022/08/03 00:14:09;;;;;;;6.70;1.40;;;15.70;99.90;;;;;;5104909;28;20171;-67
2022/08/03 00:16:36;;;;;;;3.53;1.63;;;15.80;99.90;;;;;;5105237;28;20182;-67
2022/08/03 00:19:04;;;;;;;2.90;1.33;;;15.80;99.90;;;;;;5104813;27;20186;-68
2022/08/03 00:21:32;;;;;;;2.77;1.10;;;15.90;99.90;;;;;;5104477;28;20698;-67
2022/08/03 00:24:00;;;;;;;5.57;1.40;;;16.00;99.90;;;;;;5074137;28;20624;-68
2022/08/03 00:26:28;;;;;;;2.67;1.13;;;16.20;99.90;;;;;;5095894;28;20250;-67
2022/08/03 00:28:56;;;;;;;5.43;1.60;;;16.30;99.90;;;;;;5103980;28;20632;-68
2022/08/03 00:31:24;;;;;;;4.47;1.70;;;16.30;99.90;;;;;;5095957;28;20222;-68
2022/08/03 00:33:52;;;;;;;9.63;1.80;;;16.30;99.90;;;;;;5094354;28;20536;-68
2022/08/03 00:36:20;;;;;;;5.30;1.60;;;16.30;99.90;;;;;;5074367;28;20692;-68
2022/08/03 00:38:47;;;;;;;4.60;1.60;;;16.40;99.90;;;;;;5102439;28;20186;-69
2022/08/03 00:41:15;;;;;;;3.17;1.20;;;16.50;99.90;;;;;;5099021;28;20211;-68
2022/08/03 00:43:43;;;;;;;3.67;1.20;;;16.60;99.90;;;;;;5074575;28;20187;-68
2022/08/03 00:46:11;;;;;;;3.00;1.20;;;16.80;99.90;;;;;;5093050;28;20178;-68
2022/08/03 00:48:39;;;;;;;2.93;1.40;;;16.90;99.90;;;;;;5103363;28;20231;-69
2022/08/03 00:51:07;;;;;;;4.63;1.40;;;17.60;99.90;;;;;;5098960;28;20193;-69
2022/08/03 00:53:36;;;;;;;5.13;1.93;;;17.90;99.90;;;;;;5102936;28;20191;-68
2022/08/03 00:56:04;;;;;;;8.23;1.50;;;18.00;99.90;;;;;;5085345;28;20175;-69
2022/08/03 00:58:32;;;;;;;3.17;1.20;;;18.30;99.90;;;;;;5084104;28;20549;-68
2022/08/03 01:01:00;;;;;;;5.23;1.87;;;18.30;99.90;;;;;;5101839;28;20301;-68
2022/08/03 01:03:27;;;;;;;3.83;1.30;;;18.40;99.90;;;;;;5099059;28;20209;-68
2022/08/03 01:06:18;;;;;;;3.63;1.40;;;18.50;99.90;;;;;;5101698;28;20191;-68
2022/08/03 01:09:11;;;;;;;3.93;1.27;;;18.60;99.90;;;;;;5107829;28;20170;-69
2022/08/03 01:11:48;;;;;;;2.70;1.10;;;18.80;99.90;;;;;;5072567;28;20185;-68
2022/08/03 01:14:28;;;;;;;2.70;1.43;;;19.50;99.90;;;;;;5107913;28;20901;-69
2022/08/03 01:17:22;;;;;;;4.53;1.53;;;20.50;99.90;;;;;;5109617;28;20177;-69
2022/08/03 01:20:08;;;;;;;5.47;1.37;;;20.90;99.90;;;;;;5092422;28;20790;-71
2022/08/03 01:22:59;;;;;;;2.97;1.10;;;21.40;99.90;;;;;;5093491;28;20174;-70
2022/08/03 01:25:33;;;;;;;5.63;1.60;;;22.00;99.90;;;;;;5112483;28;20546;-70
2022/08/03 01:28:25;;;;;;;4.83;1.57;;;22.20;99.90;;;;;;5094244;28;20189;-70
2022/08/03 01:30:58;;;;;;;4.53;1.50;;;22.20;99.90;;;;;;4950119;28;4032662;-71
2022/08/03 01:33:36;;;;;;;1.00;0.80;;;22.50;99.90;;;;;;5087218;28;20186;-71
2022/08/03 01:36:24;;;;;;;13.73;1.53;;;22.90;99.90;;;;;;5099158;28;20182;-71
2022/08/03 01:38:55;;;;;;;10.03;1.33;;;22.90;99.90;;;;;;5102699;28;20269;-69
2022/08/03 01:41:29;;;;;;;1.87;0.90;;;23.20;99.90;;;;;;5092840;28;20213;-69
2022/08/03 01:43:59;;;;;;;4.57;1.00;;;22.80;99.90;;;;;;5092866;28;20332;-70
2022/08/03 01:46:27;;;;;;;3.27;1.13;;;22.60;99.90;;;;;;5092827;28;20663;-70
2022/08/03 01:48:56;;;;;;;6.80;1.63;;;22.40;99.90;;;;;;5110539;28;20182;-71
2022/08/03 01:51:24;;;;;;;5.00;2.00;;;22.70;99.90;;;;;;5105089;28;20319;-67
2022/08/03 01:53:53;;;;;;;4.57;1.87;;;22.50;99.90;;;;;;5106055;28;20253;-69
2022/08/03 01:56:24;;;;;;;3.13;1.07;;;22.80;99.90;;;;;;5112247;28;20522;-70
2022/08/03 01:58:53;;;;;;;4.60;1.10;;;22.90;99.90;;;;;;5076376;28;20259;-68
2022/08/03 02:01:22;;;;;;;6.60;1.87;;;23.10;99.90;;;;;;5092383;28;20249;-70
2022/08/03 02:03:51;;;;;;;6.47;0.93;;;23.30;99.90;;;;;;5110982;28;20231;-69
2022/08/03 02:06:20;;;;;;;11.20;1.70;;;23.20;99.90;;;;;;5104304;28;20190;-69
2022/08/03 02:08:50;;;;;;;3.03;0.90;;;23.00;99.90;;;;;;5117637;27;20185;-69
2022/08/03 02:11:18;;;;;;;2.97;0.90;;;23.10;99.90;;;;;;5123476;27;20182;-66
2022/08/03 02:13:47;;;;;;;4.17;0.80;;;23.20;99.90;;;;;;5098289;28;20181;-69
2022/08/03 02:16:17;;;;;;;3.40;1.20;;;23.10;99.90;;;;;;5112575;28;20182;-70
2022/08/03 02:18:47;;;;;;;6.83;1.50;;;23.50;99.90;;;;;;5112168;28;20270;-70
2022/08/03 02:21:15;;;;;;;4.60;2.07;;;23.60;99.90;;;;;;5112336;28;20577;-68
2022/08/03 02:23:42;;;;;;;3.23;1.20;;;23.90;99.90;;;;;;5091711;28;20185;-69
2022/08/03 02:26:14;;;;;;;3.07;1.00;;;24.30;99.90;;;;;;5091975;28;20197;-70
2022/08/03 02:28:45;;;;;;;5.13;1.20;;;24.10;99.90;;;;;;5092278;28;20531;-70
2022/08/03 02:31:17;;;;;;;4.70;1.33;;;24.00;99.90;;;;;;5091924;28;20226;-70
2022/08/03 02:33:49;;;;;;;3.63;1.20;;;24.40;99.90;;;;;;5092036;28;20175;-69
2022/08/03 02:36:23;;;;;;;2.03;1.10;;;24.70;99.90;;;;;;5091532;28;20216;-70
2022/08/03 02:38:54;;;;;;;3.50;1.00;;;24.90;99.90;;;;;;5081140;28;20212;-69
2022/08/03 02:41:35;;;;;;;3.70;1.00;;;25.00;99.90;;;;;;5091752;28;20206;-69
2022/08/03 02:44:08;;;;;;;7.27;1.10;;;25.30;99.90;;;;;;5112022;28;20577;-69
2022/08/03 02:46:40;;;;;;;3.07;0.80;;;25.70;99.90;;;;;;5100436;28;20566;-71
2022/08/03 02:49:10;;;;;;;3.37;0.97;;;25.50;99.90;;;;;;5091804;28;20183;-71
2022/08/03 02:51:40;;;;;;;6.30;0.80;;;25.20;99.90;;;;;;5093652;28;20273;-70
2022/08/03 02:54:09;;;;;;;8.30;1.40;;;25.00;99.90;;;;;;5111872;28;20640;-70
2022/08/03 02:56:38;;;;;;;5.30;1.50;;;24.90;99.90;;;;;;5111884;28;20193;-71
2022/08/03 02:59:07;;;;;;;2.43;1.03;;;25.20;99.90;;;;;;5112021;28;20202;-71
2022/08/03 03:01:34;;;;;;;1.53;0.97;;;25.00;99.90;;;;;;5107146;28;20246;-70
2022/08/03 03:04:02;;;;;;;3.87;1.20;;;24.70;99.90;;;;;;5094055;28;20688;-69
2022/08/03 03:06:30;;;;;;;3.50;1.13;;;24.60;99.90;;;;;;5106911;28;20676;-70
2022/08/03 03:08:59;;;;;;;6.77;0.90;;;24.70;99.90;;;;;;5111720;28;20171;-68
2022/08/03 03:11:28;;;;;;;2.00;0.97;;;24.90;99.90;;;;;;5084404;28;20324;-69
2022/08/03 03:13:57;;;;;;;3.13;1.40;;;24.70;99.90;;;;;;5091468;28;20673;-68
2022/08/03 03:16:28;;;;;;;1.80;0.90;;;25.00;99.90;;;;;;5091243;28;20205;-68
2022/08/03 03:18:56;;;;;;;3.07;1.20;;;25.20;99.90;;;;;;5091539;28;20193;-69
2022/08/03 03:21:24;;;;;;;4.63;0.90;;;25.00;99.90;;;;;;5097326;28;20206;-68
2022/08/03 03:23:53;;;;;;;2.80;0.50;;;24.90;99.90;;;;;;5105060;28;20193;-68
2022/08/03 03:26:20;;;;;;;2.77;0.70;;;25.20;99.90;;;;;;5091148;28;20185;-69
2022/08/03 03:28:48;;;;;;;2.00;0.83;;;25.40;99.90;;;;;;5091290;28;20182;-69
2022/08/03 03:31:15;;;;;;;3.37;0.90;;;25.20;99.90;;;;;;5101438;28;20236;-68
2022/08/03 03:33:43;;;;;;;3.03;0.50;;;25.10;99.90;;;;;;5070996;28;20605;-69
2022/08/03 03:36:11;;;;;;;1.80;0.40;;;24.90;99.90;;;;;;5087370;28;20196;-69
2022/08/03 03:38:38;;;;;;;1.77;0.70;;;24.80;99.90;;;;;;5111054;28;20276;-69
2022/08/03 03:41:06;;;;;;;2.63;1.20;;;25.00;99.90;;;;;;5107688;28;20223;-69
2022/08/03 03:43:33;;;;;;;4.87;1.23;;;24.80;99.90;;;;;;5091037;28;20178;-70
2022/08/03 03:46:01;;;;;;;3.23;1.00;;;24.80;99.90;;;;;;5091159;28;20656;-69
2022/08/03 03:48:28;;;;;;;2.63;0.67;;;24.70;99.90;;;;;;5090942;28;20168;-69
2022/08/03 03:50:56;;;;;;;1.87;0.90;;;24.50;99.90;;;;;;5084441;28;20708;-69
2022/08/03 03:53:24;;;;;;;3.37;0.73;;;24.20;99.90;;;;;;5111512;28;20540;-70
2022/08/03 03:55:52;;;;;;;2.23;0.70;;;24.20;99.90;;;;;;5101441;28;20206;-69
2022/08/03 03:58:20;;;;;;;9.73;0.90;;;24.40;99.90;;;;;;5091077;28;20530;-69
2022/08/03 04:00:48;;;;;;;4.77;0.93;;;24.40;99.90;;;;;;5090944;28;20261;-68
2022/08/03 04:03:16;;;;;;;3.97;1.37;;;24.70;99.90;;;;;;5070789;28;20260;-69
2022/08/03 04:11:21;;;;;;;3.60;1.20;;;25.10;99.90;;;;;;5103634;28;20196;-70
2022/08/03 04:14:17;;;;;;;1.93;0.90;;;25.10;99.90;;;;;;5102491;28;20531;-70
2022/08/03 04:16:55;;;;;;;1.90;1.03;;;25.00;99.90;;;;;;5104274;28;20198;-69
2022/08/03 04:19:44;;;;;;;4.70;1.37;;;24.70;99.90;;;;;;5115008;28;20185;-69
2022/08/03 04:22:14;;;;;;;6.83;1.10;;;24.70;99.90;;;;;;5114043;28;20198;-70
2022/08/03 04:24:56;;;;;;;3.33;0.83;;;25.00;99.90;;;;;;5114539;28;20546;-69
2022/08/03 04:27:28;;;;;;;4.87;1.00;;;25.10;99.90;;;;;;5111040;28;20249;-68
2022/08/03 04:29:58;;;;;;;6.90;1.30;;;25.00;99.90;;;;;;5076220;28;20602;-69
2022/08/03 04:32:27;;;;;;;2.37;0.87;;;24.90;99.90;;;;;;5076007;28;20236;-69
2022/08/03 04:34:55;;;;;;;2.37;0.90;;;24.70;99.90;;;;;;5094140;28;20591;-70
2022/08/03 04:37:40;;;;;;;2.80;0.87;;;24.80;99.90;;;;;;5094261;28;20182;-70
2022/08/03 04:40:13;;;;;;;3.70;1.10;;;24.40;99.90;;;;;;5093910;28;20522;-70
2022/08/03 04:42:42;;;;;;;7.93;1.60;;;24.50;99.90;;;;;;5113148;28;20186;-70
2022/08/03 04:45:14;;;;;;;5.73;1.40;;;24.30;99.90;;;;;;5114318;28;20181;-70
2022/08/03 04:47:42;;;;;;;4.17;1.00;;;24.20;99.90;;;;;;5114383;28;20183;-70
2022/08/03 04:50:10;;;;;;;3.03;1.13;;;24.20;99.90;;;;;;5114180;28;20174;-70
2022/08/03 04:52:38;;;;;;;5.83;1.20;;;24.00;99.90;;;;;;5114343;28;20628;-70
2022/08/03 04:55:06;;;;;;;4.80;1.10;;;24.20;99.90;;;;;;5095835;28;20188;-70
2022/08/03 04:57:33;;;;;;;3.43;1.13;;;24.00;99.90;;;;;;5114402;28;20181;-70
2022/08/03 05:00:01;;;;;;;3.93;0.90;;;24.10;99.90;;;;;;5113811;28;20178;-70
2022/08/03 05:02:29;;;;;;;5.23;0.80;;;24.00;99.90;;;;;;5114108;28;20197;-69
2022/08/03 05:04:56;;;;;;;2.30;1.03;;;23.60;99.90;;;;;;5113824;28;20268;-69
2022/08/03 05:07:23;;;;;;;6.53;1.40;;;23.50;99.90;;;;;;5095808;28;20224;-69
2022/08/03 05:09:51;;;;;;;4.50;1.43;;;23.40;99.90;;;;;;5113984;28;20170;-69
2022/08/03 05:12:18;;;;;;;5.37;1.50;;;23.20;99.90;;;;;;5113774;28;20255;-69
2022/08/03 05:14:45;;;;;;;9.73;1.30;;;23.00;99.90;;;;;;5113915;28;20192;-69
2022/08/03 05:17:13;;;;;;;2.00;0.93;;;23.00;99.90;;;;;;5113928;28;20221;-69
2022/08/03 05:19:40;;;;;;;2.90;1.27;;;23.10;99.90;;;;;;5113897;28;20174;-71
2022/08/03 05:22:08;;;;;;;2.83;1.27;;;23.00;99.90;;;;;;5113737;28;20671;-71
2022/08/03 05:24:35;;;;;;;4.07;1.20;;;22.90;99.90;;;;;;5104891;28;20171;-70
2022/08/03 05:27:02;;;;;;;3.90;1.30;;;22.90;99.90;;;;;;5104339;28;20210;-71
2022/08/03 05:29:30;;;;;;;1.07;0.80;;;22.80;99.90;;;;;;5113667;28;20209;-71
2022/08/03 05:31:57;;;;;;;2.73;0.80;;;22.70;99.90;;;;;;5095918;28;20253;-71
2022/08/03 05:34:24;;;;;;;2.63;1.20;;;22.80;99.90;;;;;;5093194;28;20210;-70
2022/08/03 05:36:51;;;;;;;1.47;1.00;;;23.00;99.90;;;;;;5095633;28;20621;-69
2022/08/03 05:39:19;;;;;;;4.10;1.60;;;23.10;99.90;;;;;;5101337;28;20594;-71
2022/08/03 05:41:46;;;;;;;3.83;1.50;;;23.20;99.90;;;;;;5112621;28;20267;-71
2022/08/03 05:44:14;;;;;;;5.33;1.10;;;23.20;99.90;;;;;;5113341;28;20281;-71
2022/08/03 05:46:42;;;;;;;3.27;1.10;;;23.10;99.90;;;;;;5094524;28;20206;-71
2022/08/03 05:49:09;;;;;;;6.50;1.67;;;23.00;99.90;;;;;;5113325;28;20289;-71
2022/08/03 05:51:36;;;;;;;4.13;1.30;;;23.00;99.90;;;;;;5104292;28;20182;-70
2022/08/03 05:54:03;;;;;;;5.57;1.60;;;22.90;99.90;;;;;;5092778;28;20182;-71
2022/08/03 05:56:31;;;;;;;4.80;1.37;;;22.90;99.90;;;;;;5101950;28;20534;-71
2022/08/03 05:58:58;;;;;;;6.17;1.23;;;22.90;99.90;;;;;;5101685;28;20197;-70
2022/08/03 06:01:26;;;;;;;7.37;1.33;;;22.80;99.90;;;;;;5098042;28;20216;-70
2022/08/03 06:03:53;;;;;;;8.53;0.97;;;22.90;99.90;;;;;;5102964;28;20198;-70
2022/08/03 06:06:20;;;;;;;7.57;1.20;;;22.90;99.90;;;;;;5091999;28;20580;-71
2022/08/03 06:08:48;;;;;;;3.60;1.53;;;22.90;99.90;;;;;;5082314;28;20178;-71
2022/08/03 06:11:15;;;;;;;7.30;1.20;;;23.00;99.90;;;;;;5107575;28;20705;-71
2022/08/03 06:13:43;;;;;;;3.63;1.50;;;22.90;99.90;;;;;;5091154;28;20556;-71
2022/08/03 06:16:10;;;;;;;4.20;1.20;;;22.90;99.90;;;;;;5100821;28;20680;-71
2022/08/03 06:18:39;;;;;;;4.80;0.97;;;22.90;99.90;;;;;;5092292;28;20740;-71
2022/08/03 06:21:07;;;;;;;4.60;1.30;;;22.80;99.90;;;;;;5092190;28;20210;-72
2022/08/03 06:23:34;;;;;;;9.10;2.00;;;22.80;99.90;;;;;;5094961;28;20170;-71
2022/08/03 06:26:03;;;;;;;4.83;1.33;;;22.60;99.90;;;;;;5101935;28;20179;-71
2022/08/03 06:28:30;;;;;;;1.73;1.10;;;22.60;99.90;;;;;;5112533;28;20189;-72
2022/08/03 06:30:58;;;;;;;8.23;1.20;;;22.40;99.90;;;;;;5107767;28;20648;-72
2022/08/03 06:33:25;;;;;;;2.47;1.10;;;22.30;99.90;;;;;;5111079;28;20202;-72
2022/08/03 06:35:52;;;;;;;2.20;1.07;;;22.30;99.90;;;;;;5094159;28;20186;-72
2022/08/03 06:38:20;;;;;;;5.17;1.10;;;22.10;99.90;;;;;;5086505;28;20242;-72
2022/08/03 06:40:47;;;;;;;2.70;1.10;;;22.00;99.90;;;;;;5108012;28;20319;-72
2022/08/03 06:43:14;;;;;;;2.77;1.20;;;21.90;99.90;;;;;;5112305;28;20250;-71
2022/08/03 06:45:42;;;;;;;1.83;0.70;;;21.90;99.90;;;;;;5112105;28;20175;-72
2022/08/03 06:48:11;;;;;;;3.37;0.90;;;21.80;99.90;;;;;;5112091;28;20170;-71
2022/08/03 06:50:40;;;;;;;6.43;1.63;;;21.70;99.90;;;;;;5112173;28;20185;-73
2022/08/03 06:53:09;;;;;;;4.07;1.00;;;21.70;99.90;;;;;;5097216;28;20187;-72
2022/08/03 06:55:36;;;;;;;2.50;1.30;;;21.60;99.90;;;;;;5104605;28;20193;-71
2022/08/03 06:58:04;;;;;;;2.40;1.20;;;21.60;99.90;;;;;;5111953;28;20240;-72
2022/08/03 07:00:31;;;;;;;2.60;0.90;;;21.50;99.90;;;;;;5112006;28;20218;-71
2022/08/03 07:03:00;;;;;;;2.43;1.03;;;21.50;99.90;;;;;;5110825;28;20174;-70
2022/08/03 07:05:29;;;;;;;2.20;1.10;;;21.40;99.90;;;;;;5091598;28;20182;-72
2022/08/03 07:07:58;;;;;;;2.63;1.47;;;21.30;99.90;;;;;;5108188;28;20186;-72
2022/08/03 07:10:26;;;;;;;2.93;1.30;;;21.20;99.90;;;;;;5111504;28;20297;-70
2022/08/03 07:12:54;;;;;;;4.57;1.53;;;21.10;99.90;;;;;;5094854;28;20654;-72
2022/08/03 07:15:22;;;;;;;1.77;1.10;;;21.10;99.90;;;;;;5111962;28;20264;-71
2022/08/03 07:17:49;;;;;;;4.13;1.30;;;21.00;99.90;;;;;;5093857;28;20187;-71
2022/08/03 07:20:18;;;;;;;5.63;1.73;;;20.90;99.90;;;;;;5091336;28;20218;-71
2022/08/03 07:22:45;;;;;;;4.57;1.50;;;20.80;99.90;;;;;;5092930;28;20333;-71
2022/08/03 07:25:12;;;;;;;5.10;1.40;;;20.70;99.90;;;;;;5104127;28;20194;-72
2022/08/03 07:27:43;;;;;;;4.60;1.70;;;20.60;99.90;;;;;;5086426;28;20184;-71
2022/08/03 07:30:13;;;;;;;9.97;1.70;;;20.60;99.90;;;;;;5091339;28;20184;-70
2022/08/03 07:32:40;;;;;;;7.57;1.53;;;20.60;99.90;;;;;;5090982;28;20231;-71
2022/08/03 07:35:09;;;;;;;3.50;1.50;;;20.50;99.90;;;;;;5101410;28;20179;-71
2022/08/03 07:37:37;;;;;;;3.53;1.30;;;20.40;99.90;;;;;;5100811;28;20175;-71
2022/08/03 07:40:05;;;;;;;3.57;1.50;;;20.30;99.90;;;;;;5100466;28;20178;-70
2022/08/03 07:42:33;;;;;;;2.27;1.37;;;20.40;99.90;;;;;;5101223;28;20638;-70
2022/08/03 07:45:00;;;;;;;3.83;1.30;;;20.40;99.90;;;;;;5102397;28;20226;-71
2022/08/03 07:47:30;;;;;;;3.60;1.53;;;20.40;99.90;;;;;;5099953;28;20524;-70
2022/08/03 07:49:57;;;;;;;5.67;1.43;;;20.30;99.90;;;;;;5103523;28;20341;-71
2022/08/03 07:55:10;;;;;;;8.43;1.53;;;20.40;99.90;;;;;;5104098;28;20229;-70
2022/08/03 07:57:38;;;;;;;2.47;1.30;;;20.30;99.90;;;;;;5105047;28;20178;-70
2022/08/03 08:00:11;;;;;;;8.80;1.40;;;20.30;99.90;;;;;;5107179;28;20186;-70
2022/08/03 08:02:39;;;;;;;7.17;1.90;;;20.20;99.90;;;;;;5114706;28;20187;-71
2022/08/03 08:05:09;;;;;;;6.83;1.70;;;20.20;99.90;;;;;;5115231;28;20194;-71
2022/08/03 08:07:37;;;;;;;4.00;1.73;;;20.10;99.90;;;;;;5115851;28;20175;-71
2022/08/03 08:10:06;;;;;;;3.70;1.40;;;20.10;99.90;;;;;;5115367;28;20181;-71
2022/08/03 08:12:33;;;;;;;7.73;1.67;;;20.10;99.90;;;;;;5099214;28;20200;-73
2022/08/03 08:15:01;;;;;;;3.53;1.73;;;20.10;99.90;;;;;;5099755;28;20182;-71
2022/08/03 08:17:28;;;;;;;3.83;1.90;;;20.00;99.90;;;;;;5114840;28;20181;-74
2022/08/03 08:19:56;;;;;;;6.20;1.40;;;20.00;99.90;;;;;;5115080;28;20599;-71
2022/08/03 08:22:24;;;;;;;3.57;1.53;;;20.00;99.90;;;;;;5113287;28;20196;-71
2022/08/03 08:24:51;;;;;;;2.77;1.70;;;19.90;99.90;;;;;;5104357;28;20222;-71
2022/08/03 08:27:19;;;;;;;5.93;1.93;;;19.90;99.90;;;;;;5094594;28;20176;-71
2022/08/03 08:29:47;;;;;;;1.77;1.17;;;19.90;99.90;;;;;;5094478;28;20182;-71
2022/08/03 08:32:15;;;;;;;4.40;1.63;;;19.90;99.90;;;;;;5094456;28;20257;-70
2022/08/03 08:34:42;;;;;;;5.37;2.70;;;19.90;99.90;;;;;;5106836;28;20179;-70
2022/08/03 08:37:10;;;;;;;9.77;2.30;;;19.80;99.90;;;;;;5114627;28;20178;-70
2022/08/03 08:39:37;;;;;;;3.97;1.97;;;19.80;99.90;;;;;;5114528;28;20188;-71
2022/08/03 08:42:05;;;;;;;3.30;1.37;;;19.70;99.90;;;;;;5103256;28;20216;-71
2022/08/03 08:44:32;;;;;;;7.30;1.90;;;19.80;99.90;;;;;;5094056;28;20183;-71
2022/08/03 08:47:03;;;;;;;5.33;1.67;;;19.70;99.90;;;;;;5094190;28;20917;-71
2022/08/03 08:49:34;;;;;;;5.90;2.50;;;19.70;99.90;;;;;;5094151;28;20187;-71
2022/08/03 08:52:04;;;;;;;3.70;1.83;;;19.70;99.90;;;;;;5104238;28;20186;-71
2022/08/03 08:54:33;;;;;;;4.30;1.70;;;19.60;99.90;;;;;;5114225;28;20187;-73
2022/08/03 08:57:05;;;;;;;7.10;1.70;;;19.60;99.90;;;;;;5115885;28;20231;-73
2022/08/03 08:59:35;;;;;;;4.70;2.03;;;19.60;99.90;;;;;;5115248;28;20196;-73
2022/08/03 09:02:02;;;;;;;3.17;1.90;;;19.70;99.90;;;;;;5114273;28;20210;-73
2022/08/03 09:04:30;;;;;;;3.83;1.97;;;19.50;99.90;;;;;;5115448;28;20166;-72
2022/08/03 09:06:57;;;;;;;1.93;1.50;;;19.50;99.90;;;;;;5115689;28;20182;-73
2022/08/03 09:09:25;;;;;;;6.50;1.70;;;19.50;99.90;;;;;;5115159;28;20228;-73
2022/08/03 09:11:52;;;;;;;5.13;2.60;;;19.50;99.90;;;;;;5115390;28;20171;-72
2022/08/03 09:14:20;;;;;;;6.33;2.00;;;19.40;99.90;;;;;;5115501;28;20266;-72
2022/08/03 09:17:01;;;;;;;3.50;1.50;;;19.40;99.90;;;;;;5115650;28;20178;-72
2022/08/03 09:19:32;;;;;;;5.27;1.30;;;19.40;99.90;;;;;;5115851;28;20175;-72
2022/08/03 09:22:13;;;;;;;1.80;1.30;;;19.40;99.90;;;;;;5115668;28;20217;-73
2022/08/03 09:25:00;;;;;;;5.23;1.70;;;19.40;99.90;;;;;;5115339;28;20213;-71
2022/08/03 09:27:45;;;;;;;6.97;1.90;;;19.40;99.90;;;;;;5115611;28;20183;-71
2022/08/03 09:30:16;;;;;;;4.90;1.80;;;19.40;99.90;;;;;;5115358;28;20285;-73
2022/08/03 09:32:44;;;;;;;2.43;1.60;;;19.40;99.90;;;;;;5096778;28;20241;-72
2022/08/03 09:35:13;;;;;;;2.07;1.60;;;19.30;99.90;;;;;;5115195;28;20653;-72
2022/08/03 09:37:40;;;;;;;3.53;1.60;;;19.30;99.90;;;;;;5115185;28;20208;-73
2022/08/03 09:40:08;;;;;;;3.23;1.27;;;19.40;99.90;;;;;;5115066;28;20212;-73
2022/08/03 09:42:38;;;;;;;1.77;1.30;;;19.30;99.90;;;;;;5115029;28;20640;-73
2022/08/03 09:45:06;;;;;;;5.70;1.57;;;19.30;99.90;;;;;;5114827;28;20538;-73
2022/08/03 09:47:35;;;;;;;5.20;1.60;;;19.40;99.90;;;;;;5115007;28;20628;-71
2022/08/03 09:50:08;;;;;;;2.87;1.90;;;19.30;99.90;;;;;;5115105;28;20165;-72
2022/08/03 09:52:38;;;;;;;3.13;2.00;;;19.20;99.90;;;;;;5115162;28;20184;-73
2022/08/03 09:55:13;;;;;;;2.93;1.73;;;19.20;99.90;;;;;;5114820;28;20592;-72
2022/08/03 09:57:45;;;;;;;3.50;1.83;;;19.20;99.90;;;;;;5100963;28;20190;-71
2022/08/03 10:00:17;;;;;;;6.10;2.17;;;19.20;99.90;;;;;;5114765;28;20642;-73
2022/08/03 10:02:45;;;;;;;2.43;1.83;;;19.10;99.90;;;;;;5114674;28;20613;-72
2022/08/03 10:05:13;;;;;;;4.03;2.10;;;19.10;99.90;;;;;;5114551;28;20254;-73
2022/08/03 10:07:49;;;;;;;6.30;2.10;;;19.10;99.90;;;;;;5114467;28;20608;-72
2022/08/03 10:10:18;;;;;;;7.30;2.10;;;19.10;99.90;;;;;;5096207;28;20268;-73
2022/08/03 10:12:47;;;;;;;3.47;1.87;;;19.00;99.90;;;;;;5113955;28;20175;-73
2022/08/03 10:15:15;;;;;;;3.33;1.70;;;19.00;99.90;;;;;;5095550;28;20718;-73
2022/08/03 10:17:42;;;;;;;3.77;1.93;;;18.90;99.90;;;;;;5114277;28;20163;-74
2022/08/03 10:20:10;;;;;;;4.53;2.40;;;18.90;99.90;;;;;;5114134;28;20194;-72
2022/08/03 10:22:41;;;;;;;3.13;2.17;;;18.80;99.90;;;;;;5114112;28;20167;-73
2022/08/03 10:25:14;;;;;;;3.80;2.13;;;18.80;99.90;;;;;;5114143;28;20167;-72
2022/08/03 10:27:44;;;;;;;6.00;2.00;;;18.70;99.90;;;;;;5114270;28;20183;-72
2022/08/03 10:30:13;;;;;;;3.93;1.40;;;18.70;99.90;;;;;;5114283;28;20170;-71
2022/08/03 10:33:12;;;;;;;2.90;1.50;;;18.70;99.90;;;;;;5113879;28;20215;-72
2022/08/03 10:35:41;;;;;;;6.43;1.63;;;18.70;99.90;;;;;;5114096;28;20174;-73
2022/08/03 10:38:17;;;;;;;5.23;1.80;;;18.70;99.90;;;;;;5114149;28;20193;-73
2022/08/03 10:40:45;;;;;;;4.00;1.93;;;18.70;99.90;;;;;;5113907;28;20245;-73
2022/08/03 10:43:20;;;;;;;3.87;2.10;;;18.70;99.90;;;;;;5114351;28;20206;-72
2022/08/03 10:45:48;;;;;;;4.70;1.80;;;18.70;99.90;;;;;;5113650;28;20174;-72
2022/08/03 10:48:17;;;;;;;2.57;1.50;;;18.60;99.90;;;;;;5113943;28;20645;-72
2022/08/03 10:50:45;;;;;;;1.53;1.40;;;18.60;99.90;;;;;;5113664;28;20544;-72
2022/08/03 10:53:12;;;;;;;2.40;1.33;;;18.60;99.90;;;;;;5113887;28;20167;-72
2022/08/03 10:58:52;;;;;;;3.27;1.53;;;18.60;99.90;;;;;;5113851;28;20193;-71
2022/08/03 11:01:49;;;;;;;3.47;1.80;;;18.50;99.90;;;;;;5113432;28;20650;-72
2022/08/03 11:04:18;;;;;;;3.40;1.40;;;18.60;99.90;;;;;;5113326;28;20197;-72
2022/08/03 11:06:47;;;;;;;8.17;1.60;;;18.40;99.90;;;;;;5113381;28;20175;-72
2022/08/03 11:09:16;;;;;;;2.83;1.50;;;18.40;99.90;;;;;;5113486;28;20167;-72
2022/08/03 11:11:46;;;;;;;2.40;1.53;;;18.30;99.90;;;;;;5095043;28;20599;-72
2022/08/03 11:14:18;;;;;;;3.43;1.70;;;18.30;99.90;;;;;;5113154;28;20251;-71
2022/08/03 11:17:07;;;;;;;2.23;1.50;;;18.30;99.90;;;;;;5113420;28;20306;-72
2022/08/03 11:19:48;;;;;;;4.50;1.50;;;18.30;99.90;;;;;;5113624;28;20179;-71
2022/08/03 11:22:17;;;;;;;1.63;1.43;;;18.30;99.90;;;;;;5113396;28;20217;-72
2022/08/03 11:24:50;;;;;;;4.93;1.33;;;18.20;99.90;;;;;;5117052;28;20175;-72
2022/08/03 11:27:33;;;;;;;2.83;1.50;;;18.30;99.90;;;;;;5117664;28;20220;-72
2022/08/03 11:30:18;;;;;;;5.00;1.83;;;18.40;99.90;;;;;;5117520;28;20253;-72
2022/08/03 11:32:46;;;;;;;1.20;1.10;;;18.50;99.90;;;;;;5117437;28;20228;-73
2022/08/03 11:35:14;;;;;;;3.17;1.30;;;18.40;99.90;;;;;;5117256;28;20539;-71
2022/08/03 11:38:00;;;;;;;2.50;1.60;;;18.40;99.90;;;;;;5117481;28;20214;-72
2022/08/03 11:40:48;;;;;;;4.43;1.40;;;18.30;99.90;;;;;;5117401;28;20203;-72
2022/08/03 11:43:35;;;;;;;1.73;1.37;;;18.20;99.90;;;;;;5117051;28;20270;-72
2022/08/03 11:46:04;;;;;;;3.30;1.70;;;18.20;99.90;;;;;;5117046;28;20674;-73
2022/08/03 11:48:44;;;;;;;5.50;1.67;;;18.20;99.90;;;;;;5117202;28;20174;-70
2022/08/03 11:51:26;;;;;;;2.20;1.40;;;18.10;99.90;;;;;;5117271;28;20174;-72
2022/08/03 11:53:58;;;;;;;4.93;1.60;;;18.20;99.90;;;;;;5098786;28;20365;-71
2022/08/03 11:56:27;;;;;;;2.67;1.57;;;18.20;99.90;;;;;;5099257;28;20184;-72
2022/08/03 11:58:57;;;;;;;3.20;1.60;;;18.10;99.90;;;;;;5117092;28;20166;-72
2022/08/03 12:01:24;;;;;;;9.60;1.67;;;18.10;99.90;;;;;;5116827;28;20276;-72
2022/08/03 12:03:52;;;;;;;4.77;1.87;;;18.00;99.90;;;;;;5125630;27;20167;-72
2022/08/03 12:06:20;;;;;;;2.67;1.43;;;18.10;99.90;;;;;;5103353;28;20281;-72
2022/08/03 12:08:48;;;;;;;2.17;1.43;;;18.00;99.90;;;;;;5116468;28;20168;-71
2022/08/03 12:11:16;;;;;;;3.47;1.70;;;18.00;99.90;;;;;;5116682;28;20175;-73
2022/08/03 12:13:46;;;;;;;1.90;1.20;;;18.10;99.90;;;;;;5116876;28;20182;-72
2022/08/03 12:16:24;;;;;;;4.27;1.50;;;18.00;99.90;;;;;;5109902;28;20172;-71
2022/08/03 12:18:59;;;;;;;3.03;1.47;;;18.00;99.90;;;;;;5096036;28;20190;-72
2022/08/03 12:21:27;;;;;;;2.73;1.50;;;18.10;99.90;;;;;;5096209;28;20210;-72
2022/08/03 12:24:05;;;;;;;3.47;1.80;;;18.00;99.90;;;;;;5095846;28;20187;-73
2022/08/03 12:26:45;;;;;;;2.27;1.43;;;18.00;99.90;;;;;;5104734;28;20178;-72
2022/08/03 12:29:20;;;;;;;5.63;1.70;;;18.00;99.90;;;;;;5116075;28;20182;-73
2022/08/03 12:31:48;;;;;;;4.10;1.30;;;17.90;99.90;;;;;;5115808;28;20749;-72
2022/08/03 12:34:16;;;;;;;2.43;1.30;;;17.90;99.90;;;;;;5115913;28;20174;-73
2022/08/03 12:36:55;;;;;;;2.47;1.50;;;17.90;99.90;;;;;;5116278;28;20179;-72
2022/08/03 12:39:28;;;;;;;4.07;1.47;;;17.90;99.90;;;;;;5097949;28;20626;-71
2022/08/03 12:41:56;;;;;;;3.07;1.63;;;17.80;99.90;;;;;;5096005;28;20263;-72
2022/08/03 12:44:35;;;;;;;3.33;1.57;;;17.90;99.90;;;;;;5095593;28;20706;-72
2022/08/03 12:47:05;;;;;;;3.47;1.33;;;17.90;99.90;;;;;;5095629;28;20179;-72
2022/08/03 12:49:47;;;;;;;2.60;1.67;;;18.00;99.90;;;;;;5105210;28;20558;-72
2022/08/03 12:52:15;;;;;;;2.47;1.70;;;18.00;99.90;;;;;;5107216;28;20175;-72
2022/08/03 12:54:44;;;;;;;2.17;1.60;;;17.90;99.90;;;;;;5095537;28;20199;-72
2022/08/03 12:57:13;;;;;;;4.40;1.73;;;17.90;99.90;;;;;;5095574;28;20171;-72
2022/08/03 12:59:44;;;;;;;4.77;2.00;;;17.80;99.90;;;;;;5095272;28;20171;-72
2022/08/03 13:02:19;;;;;;;3.07;1.60;;;17.80;99.90;;;;;;5095242;28;20686;-72
2022/08/03 13:04:48;;;;;;;3.20;1.70;;;17.80;99.90;;;;;;5095142;28;20198;-72
2022/08/03 13:07:16;;;;;;;6.53;2.20;;;17.90;99.90;;;;;;5108291;28;20178;-74
2022/08/03 13:09:44;;;;;;;3.90;1.60;;;17.90;99.90;;;;;;5095258;28;20653;-73
2022/08/03 13:12:17;;;;;;;4.00;1.60;;;17.90;99.90;;;;;;5095477;28;20175;-71
2022/08/03 13:14:46;;;;;;;3.63;1.50;;;17.80;99.90;;;;;;5095105;28;20183;-71